sensor_id;sensor_type;location;lat;lon;timestamp;pressure;altitude;pressure_sealevel;temperature;humidity
70921;BME280;58572;48.110;19.838;2023-09-19T00:01:39;97387.97;;;21.91;70.53
70921;BME280;58572;48.110;19.838;2023-09-19T00:04:08;97380.13;;;21.93;70.73
70921;BME280;58572;48.110;19.838;2023-09-19T00:06:36;97370.81;;;21.82;70.97
70921;BME280;58572;48.110;19.838;2023-09-19T00:09:03;97348.84;;;21.70;70.70
70921;BME280;58572;48.110;19.838;2023-09-19T00:11:35;97370.53;;;21.87;71.07
70921;BME280;58572;48.110;19.838;2023-09-19T00:14:03;97370.25;;;21.73;71.76
70921;BME280;58572;48.110;19.838;2023-09-19T00:16:30;97380.00;;;21.86;71.09
70921;BME280;58572;48.110;19.838;2023-09-19T00:18:58;97376.75;;;21.84;71.50
70921;BME280;58572;48.110;19.838;2023-09-19T00:21:31;97371.91;;;21.77;71.24
70921;BME280;58572;48.110;19.838;2023-09-19T00:23:58;97375.31;;;21.90;70.78
70921;BME280;58572;48.110;19.838;2023-09-19T00:26:25;97366.59;;;21.88;70.70
70921;BME280;58572;48.110;19.838;2023-09-19T00:28:56;97369.19;;;21.81;71.01
70921;BME280;58572;48.110;19.838;2023-09-19T00:31:30;97366.16;;;21.86;71.13
70921;BME280;58572;48.110;19.838;2023-09-19T00:33:57;97362.38;;;21.75;71.42
70921;BME280;58572;48.110;19.838;2023-09-19T00:36:33;97368.72;;;21.75;71.19
70921;BME280;58572;48.110;19.838;2023-09-19T00:39:00;97363.00;;;21.64;71.99
70921;BME280;58572;48.110;19.838;2023-09-19T00:41:28;97364.09;;;22.28;69.54
70921;BME280;58572;48.110;19.838;2023-09-19T00:43:56;97353.97;;;22.40;68.53
70921;BME280;58572;48.110;19.838;2023-09-19T00:46:27;97362.06;;;22.52;68.17
70921;BME280;58572;48.110;19.838;2023-09-19T00:48:54;97359.59;;;22.47;68.51
70921;BME280;58572;48.110;19.838;2023-09-19T00:51:23;97320.22;;;22.04;68.95
70921;BME280;58572;48.110;19.838;2023-09-19T00:53:53;97358.00;;;22.46;68.36
70921;BME280;58572;48.110;19.838;2023-09-19T00:56:21;97361.31;;;22.55;68.15
70921;BME280;58572;48.110;19.838;2023-09-19T00:58:48;97353.75;;;22.52;68.02
70921;BME280;58572;48.110;19.838;2023-09-19T01:01:15;97349.44;;;22.54;68.03
70921;BME280;58572;48.110;19.838;2023-09-19T01:03:44;97347.03;;;22.53;68.19
70921;BME280;58572;48.110;19.838;2023-09-19T01:06:11;97354.06;;;22.47;68.18
70921;BME280;58572;48.110;19.838;2023-09-19T01:08:39;97346.84;;;22.39;68.55
70921;BME280;58572;48.110;19.838;2023-09-19T01:11:13;97345.28;;;22.41;68.91
70921;BME280;58572;48.110;19.838;2023-09-19T01:13:51;97352.47;;;22.46;68.26
70921;BME280;58572;48.110;19.838;2023-09-19T01:16:32;97352.97;;;22.25;68.81
70921;BME280;58572;48.110;19.838;2023-09-19T01:19:12;97340.53;;;22.42;67.94
70921;BME280;58572;48.110;19.838;2023-09-19T01:21:55;97339.78;;;22.45;67.67
70921;BME280;58572;48.110;19.838;2023-09-19T01:24:46;97331.22;;;22.27;68.83
70921;BME280;58572;48.110;19.838;2023-09-19T01:27:39;97328.56;;;22.34;68.39
70921;BME280;58572;48.110;19.838;2023-09-19T01:30:21;97332.88;;;22.05;69.24
70921;BME280;58572;48.110;19.838;2023-09-19T01:32:50;97324.41;;;22.21;69.09
70921;BME280;58572;48.110;19.838;2023-09-19T01:35:18;97332.13;;;22.08;69.02
70921;BME280;58572;48.110;19.838;2023-09-19T01:37:45;97320.63;;;22.33;68.35
70921;BME280;58572;48.110;19.838;2023-09-19T01:40:15;97321.59;;;22.17;68.65
70921;BME280;58572;48.110;19.838;2023-09-19T01:42:45;97320.63;;;22.06;68.92
70921;BME280;58572;48.110;19.838;2023-09-19T01:45:26;97315.78;;;22.26;68.64
70921;BME280;58572;48.110;19.838;2023-09-19T01:48:01;97302.38;;;22.28;68.62
70921;BME280;58572;48.110;19.838;2023-09-19T01:50:36;97307.44;;;22.22;68.45
70921;BME280;58572;48.110;19.838;2023-09-19T01:53:13;97302.31;;;22.24;68.54
70921;BME280;58572;48.110;19.838;2023-09-19T01:55:45;97297.19;;;22.00;69.03
70921;BME280;58572;48.110;19.838;2023-09-19T01:58:20;97296.53;;;22.07;69.10
70921;BME280;58572;48.110;19.838;2023-09-19T02:00:50;97301.00;;;21.92;69.49
70921;BME280;58572;48.110;19.838;2023-09-19T02:03:18;97294.34;;;22.19;68.66
70921;BME280;58572;48.110;19.838;2023-09-19T02:05:51;97297.06;;;22.16;68.84
70921;BME280;58572;48.110;19.838;2023-09-19T02:08:20;97282.06;;;21.94;68.94
70921;BME280;58572;48.110;19.838;2023-09-19T02:10:49;97293.25;;;22.01;69.17
70921;BME280;58572;48.110;19.838;2023-09-19T02:13:17;97272.19;;;21.70;69.85
70921;BME280;58572;48.110;19.838;2023-09-19T02:15:44;97239.88;;;21.78;68.61
70921;BME280;58572;48.110;19.838;2023-09-19T02:18:13;97294.81;;;22.25;67.97
70921;BME280;58572;48.110;19.838;2023-09-19T02:20:41;97300.84;;;22.04;68.77
70921;BME280;58572;48.110;19.838;2023-09-19T02:23:09;97297.53;;;22.21;68.11
70921;BME280;58572;48.110;19.838;2023-09-19T02:25:36;97256.72;;;21.92;68.12
70921;BME280;58572;48.110;19.838;2023-09-19T02:28:04;97292.09;;;22.28;67.74
70921;BME280;58572;48.110;19.838;2023-09-19T02:30:31;97269.59;;;22.04;67.87
70921;BME280;58572;48.110;19.838;2023-09-19T02:32:59;97298.91;;;22.08;68.54
70921;BME280;58572;48.110;19.838;2023-09-19T02:35:30;97294.50;;;22.04;68.46
70921;BME280;58572;48.110;19.838;2023-09-19T02:38:00;97295.59;;;21.99;69.05
70921;BME280;58572;48.110;19.838;2023-09-19T02:40:27;97302.63;;;21.47;70.43
70921;BME280;58572;48.110;19.838;2023-09-19T02:42:55;97300.84;;;21.35;71.39
70921;BME280;58572;48.110;19.838;2023-09-19T02:45:24;97295.50;;;21.46;70.53
70921;BME280;58572;48.110;19.838;2023-09-19T02:47:52;97294.63;;;21.42;70.93
70921;BME280;58572;48.110;19.838;2023-09-19T02:50:19;97297.63;;;20.91;72.87
70921;BME280;58572;48.110;19.838;2023-09-19T02:52:47;97275.59;;;21.37;71.07
70921;BME280;58572;48.110;19.838;2023-09-19T02:55:16;97273.91;;;21.55;70.17
70921;BME280;58572;48.110;19.838;2023-09-19T02:57:48;97260.31;;;21.70;69.61
70921;BME280;58572;48.110;19.838;2023-09-19T03:00:16;97271.50;;;21.77;69.72
70921;BME280;58572;48.110;19.838;2023-09-19T03:02:47;97267.69;;;21.85;69.08
70921;BME280;58572;48.110;19.838;2023-09-19T03:05:14;97270.63;;;21.73;69.17
70921;BME280;58572;48.110;19.838;2023-09-19T03:07:42;97271.59;;;21.84;69.13
70921;BME280;58572;48.110;19.838;2023-09-19T03:10:13;97265.59;;;21.78;69.18
70921;BME280;58572;48.110;19.838;2023-09-19T03:12:41;97269.91;;;21.76;69.25
70921;BME280;58572;48.110;19.838;2023-09-19T03:15:09;97264.38;;;21.76;68.97
70921;BME280;58572;48.110;19.838;2023-09-19T03:17:37;97258.34;;;21.70;69.62
70921;BME280;58572;48.110;19.838;2023-09-19T03:20:05;97261.03;;;21.40;70.57
70921;BME280;58572;48.110;19.838;2023-09-19T03:22:34;97260.59;;;21.38;70.66
70921;BME280;58572;48.110;19.838;2023-09-19T03:25:01;97260.63;;;21.64;69.61
70921;BME280;58572;48.110;19.838;2023-09-19T03:27:34;97259.06;;;21.90;68.67
70921;BME280;58572;48.110;19.838;2023-09-19T03:30:01;97265.16;;;21.76;69.17
70921;BME280;58572;48.110;19.838;2023-09-19T03:32:31;97266.38;;;21.52;70.20
70921;BME280;58572;48.110;19.838;2023-09-19T03:34:58;97262.53;;;21.60;70.30
70921;BME280;58572;48.110;19.838;2023-09-19T03:37:25;97256.69;;;21.65;69.55
70921;BME280;58572;48.110;19.838;2023-09-19T03:39:52;97259.56;;;21.73;69.30
70921;BME280;58572;48.110;19.838;2023-09-19T03:42:20;97254.38;;;21.94;68.35
70921;BME280;58572;48.110;19.838;2023-09-19T03:44:52;97252.03;;;21.96;68.34
70921;BME280;58572;48.110;19.838;2023-09-19T03:47:20;97245.56;;;21.85;68.69
70921;BME280;58572;48.110;19.838;2023-09-19T03:49:47;97250.44;;;21.95;68.49
70921;BME280;58572;48.110;19.838;2023-09-19T03:52:14;97250.88;;;21.97;68.46
70921;BME280;58572;48.110;19.838;2023-09-19T03:54:42;97254.66;;;22.12;67.21
70921;BME280;58572;48.110;19.838;2023-09-19T03:57:09;97246.88;;;21.94;68.22
70921;BME280;58572;48.110;19.838;2023-09-19T03:59:38;97249.63;;;20.99;73.15
70921;BME280;58572;48.110;19.838;2023-09-19T04:02:09;97247.97;;;21.63;69.56
70921;BME280;58572;48.110;19.838;2023-09-19T04:04:47;97245.41;;;21.78;69.07
70921;BME280;58572;48.110;19.838;2023-09-19T04:07:14;97244.28;;;21.56;69.66
70921;BME280;58572;48.110;19.838;2023-09-19T04:09:42;97245.47;;;21.32;71.75
70921;BME280;58572;48.110;19.838;2023-09-19T04:12:09;97247.75;;;21.26;71.92
70921;BME280;58572;48.110;19.838;2023-09-19T04:14:36;97242.00;;;21.61;69.42
70921;BME280;58572;48.110;19.838;2023-09-19T04:17:04;97246.16;;;21.75;68.75
70921;BME280;58572;48.110;19.838;2023-09-19T04:19:32;97239.88;;;21.78;69.17
70921;BME280;58572;48.110;19.838;2023-09-19T04:21:59;97249.03;;;21.55;70.07
70921;BME280;58572;48.110;19.838;2023-09-19T04:24:27;97242.63;;;21.51;69.84
70921;BME280;58572;48.110;19.838;2023-09-19T04:26:54;97242.53;;;21.44;70.57
70921;BME280;58572;48.110;19.838;2023-09-19T04:29:21;97250.44;;;21.46;70.01
70921;BME280;58572;48.110;19.838;2023-09-19T04:31:48;97256.28;;;21.63;69.39
70921;BME280;58572;48.110;19.838;2023-09-19T04:34:15;97250.84;;;21.71;69.31
70921;BME280;58572;48.110;19.838;2023-09-19T04:36:44;97251.81;;;21.32;70.41
70921;BME280;58572;48.110;19.838;2023-09-19T04:39:11;97254.66;;;21.17;71.54
70921;BME280;58572;48.110;19.838;2023-09-19T04:41:39;97248.56;;;21.27;70.92
70921;BME280;58572;48.110;19.838;2023-09-19T04:44:07;97245.56;;;20.93;74.23
70921;BME280;58572;48.110;19.838;2023-09-19T04:46:34;97235.56;;;20.47;74.38
70921;BME280;58572;48.110;19.838;2023-09-19T04:49:01;97248.19;;;20.48;73.84
70921;BME280;58572;48.110;19.838;2023-09-19T04:51:29;97250.38;;;20.58;74.53
70921;BME280;58572;48.110;19.838;2023-09-19T04:54:01;97250.88;;;20.44;76.13
70921;BME280;58572;48.110;19.838;2023-09-19T04:56:29;97257.03;;;20.95;72.33
70921;BME280;58572;48.110;19.838;2023-09-19T04:58:57;97248.88;;;21.02;72.14
70921;BME280;58572;48.110;19.838;2023-09-19T05:01:24;97246.72;;;21.34;70.83
70921;BME280;58572;48.110;19.838;2023-09-19T05:03:51;97253.91;;;21.39;70.41
70921;BME280;58572;48.110;19.838;2023-09-19T05:06:18;97250.50;;;20.65;73.64
70921;BME280;58572;48.110;19.838;2023-09-19T05:08:47;97257.44;;;21.17;71.35
70921;BME280;58572;48.110;19.838;2023-09-19T05:11:18;97258.88;;;21.30;71.53
70921;BME280;58572;48.110;19.838;2023-09-19T05:13:47;97259.81;;;20.95;73.97
70921;BME280;58572;48.110;19.838;2023-09-19T05:16:16;97262.94;;;21.36;70.64
70921;BME280;58572;48.110;19.838;2023-09-19T05:18:43;97262.44;;;21.53;70.01
70921;BME280;58572;48.110;19.838;2023-09-19T05:21:10;97263.88;;;21.93;68.47
70921;BME280;58572;48.110;19.838;2023-09-19T05:23:38;97259.09;;;21.67;69.28
70921;BME280;58572;48.110;19.838;2023-09-19T05:26:06;97260.19;;;21.62;69.51
70921;BME280;58572;48.110;19.838;2023-09-19T05:28:35;97261.75;;;22.09;67.51
70921;BME280;58572;48.110;19.838;2023-09-19T05:31:03;97269.91;;;21.76;70.27
70921;BME280;58572;48.110;19.838;2023-09-19T05:33:30;97267.38;;;21.67;69.45
70921;BME280;58572;48.110;19.838;2023-09-19T05:35:58;97272.50;;;21.88;68.52
70921;BME280;58572;48.110;19.838;2023-09-19T05:38:25;97274.25;;;21.77;68.81
70921;BME280;58572;48.110;19.838;2023-09-19T05:40:52;97276.28;;;21.80;68.68
70921;BME280;58572;48.110;19.838;2023-09-19T05:43:20;97276.13;;;21.23;71.27
70921;BME280;58572;48.110;19.838;2023-09-19T05:45:48;97273.38;;;21.95;69.89
70921;BME280;58572;48.110;19.838;2023-09-19T05:48:17;97180.13;;;21.47;67.84
70921;BME280;58572;48.110;19.838;2023-09-19T05:50:46;97276.97;;;21.96;68.24
70921;BME280;58572;48.110;19.838;2023-09-19T05:53:14;97286.25;;;22.07;67.98
70921;BME280;58572;48.110;19.838;2023-09-19T05:55:41;97279.31;;;21.71;69.30
70921;BME280;58572;48.110;19.838;2023-09-19T05:58:08;97275.44;;;21.76;69.11
70921;BME280;58572;48.110;19.838;2023-09-19T06:00:39;97277.53;;;21.59;69.74
70921;BME280;58572;48.110;19.838;2023-09-19T06:03:11;97274.16;;;21.24;72.00
70921;BME280;58572;48.110;19.838;2023-09-19T06:05:39;97276.03;;;20.58;77.89
70921;BME280;58572;48.110;19.838;2023-09-19T06:08:07;97267.91;;;21.27;71.83
70921;BME280;58572;48.110;19.838;2023-09-19T06:10:35;97265.91;;;21.04;76.19
70921;BME280;58572;48.110;19.838;2023-09-19T06:13:02;97271.34;;;21.43;71.65
70921;BME280;58572;48.110;19.838;2023-09-19T06:15:30;97272.19;;;20.82;77.03
70921;BME280;58572;48.110;19.838;2023-09-19T06:17:59;97283.13;;;20.79;76.16
70921;BME280;58572;48.110;19.838;2023-09-19T06:20:40;97290.34;;;21.45;71.71
70921;BME280;58572;48.110;19.838;2023-09-19T06:23:16;97293.75;;;21.84;69.90
70921;BME280;58572;48.110;19.838;2023-09-19T06:25:45;97291.09;;;22.14;70.65
70921;BME280;58572;48.110;19.838;2023-09-19T06:28:14;97291.22;;;21.98;68.98
70921;BME280;58572;48.110;19.838;2023-09-19T06:30:44;97304.81;;;21.84;69.86
70921;BME280;58572;48.110;19.838;2023-09-19T06:33:11;97306.38;;;21.35;72.17
70921;BME280;58572;48.110;19.838;2023-09-19T06:35:40;97308.66;;;21.30;73.59
70921;BME280;58572;48.110;19.838;2023-09-19T06:38:07;97305.16;;;21.14;75.19
70921;BME280;58572;48.110;19.838;2023-09-19T06:40:34;97309.69;;;21.02;73.72
70921;BME280;58572;48.110;19.838;2023-09-19T06:43:03;97308.41;;;21.61;71.91
70921;BME280;58572;48.110;19.838;2023-09-19T06:45:33;97305.75;;;21.68;70.63
70921;BME280;58572;48.110;19.838;2023-09-19T06:48:01;97303.97;;;22.29;67.94
70921;BME280;58572;48.110;19.838;2023-09-19T06:50:32;97296.47;;;22.03;68.63
70921;BME280;58572;48.110;19.838;2023-09-19T06:53:02;97300.28;;;21.95;69.12
70921;BME280;58572;48.110;19.838;2023-09-19T06:55:29;97303.91;;;22.25;68.03
70921;BME280;58572;48.110;19.838;2023-09-19T06:58:18;97308.06;;;22.39;68.80
70921;BME280;58572;48.110;19.838;2023-09-19T07:04:28;97309.25;;;22.11;68.49
70921;BME280;58572;48.110;19.838;2023-09-19T07:10:08;97314.97;;;22.52;66.78
70921;BME280;58572;48.110;19.838;2023-09-19T07:12:36;97322.03;;;22.19;67.81
70921;BME280;58572;48.110;19.838;2023-09-19T07:15:04;97324.56;;;22.32;67.40
70921;BME280;58572;48.110;19.838;2023-09-19T07:17:32;97321.53;;;22.40;67.07
70921;BME280;58572;48.110;19.838;2023-09-19T07:19:59;97324.75;;;21.93;69.15
70921;BME280;58572;48.110;19.838;2023-09-19T07:22:33;97328.94;;;22.06;68.71
70921;BME280;58572;48.110;19.838;2023-09-19T07:25:00;97332.22;;;22.42;67.61
70921;BME280;58572;48.110;19.838;2023-09-19T07:27:28;97331.50;;;22.18;68.49
70921;BME280;58572;48.110;19.838;2023-09-19T07:29:56;97328.63;;;22.11;68.52
70921;BME280;58572;48.110;19.838;2023-09-19T07:32:24;97329.78;;;22.10;68.86
70921;BME280;58572;48.110;19.838;2023-09-19T07:34:51;97339.59;;;22.04;69.16
70921;BME280;58572;48.110;19.838;2023-09-19T07:37:20;97312.69;;;21.82;69.35
70921;BME280;58572;48.110;19.838;2023-09-19T07:39:47;97341.78;;;22.18;68.14
70921;BME280;58572;48.110;19.838;2023-09-19T07:42:15;97339.59;;;22.30;67.91
70921;BME280;58572;48.110;19.838;2023-09-19T07:44:45;97339.66;;;21.85;69.32
70921;BME280;58572;48.110;19.838;2023-09-19T07:47:16;97347.06;;;21.81;70.50
70921;BME280;58572;48.110;19.838;2023-09-19T07:49:49;97353.16;;;20.67;74.21
70921;BME280;58572;48.110;19.838;2023-09-19T07:52:16;97354.63;;;21.84;69.87
70921;BME280;58572;48.110;19.838;2023-09-19T07:54:44;97339.50;;;21.78;69.43
70921;BME280;58572;48.110;19.838;2023-09-19T07:57:13;97355.78;;;20.09;76.37
70921;BME280;58572;48.110;19.838;2023-09-19T07:59:41;97351.28;;;21.29;71.95
70921;BME280;58572;48.110;19.838;2023-09-19T08:02:10;97349.19;;;21.87;69.57
70921;BME280;58572;48.110;19.838;2023-09-19T08:04:41;97349.34;;;21.75;69.83
70921;BME280;58572;48.110;19.838;2023-09-19T08:07:08;97343.28;;;22.12;68.37
70921;BME280;58572;48.110;19.838;2023-09-19T08:09:36;97349.72;;;21.74;69.73
70921;BME280;58572;48.110;19.838;2023-09-19T08:12:04;97340.34;;;21.82;69.69
70921;BME280;58572;48.110;19.838;2023-09-19T08:14:34;97346.09;;;22.15;68.16
70921;BME280;58572;48.110;19.838;2023-09-19T08:17:01;97345.53;;;21.60;70.20
70921;BME280;58572;48.110;19.838;2023-09-19T08:19:30;97350.06;;;21.49;71.02
70921;BME280;58572;48.110;19.838;2023-09-19T08:21:58;97345.56;;;22.06;68.33
70921;BME280;58572;48.110;19.838;2023-09-19T08:24:25;97350.22;;;22.02;68.86
70921;BME280;58572;48.110;19.838;2023-09-19T08:26:54;97353.03;;;21.60;70.65
70921;BME280;58572;48.110;19.838;2023-09-19T08:29:22;97345.41;;;21.53;70.90
70921;BME280;58572;48.110;19.838;2023-09-19T08:31:54;97341.34;;;22.16;68.24
70921;BME280;58572;48.110;19.838;2023-09-19T08:34:22;97345.97;;;22.08;68.54
70921;BME280;58572;48.110;19.838;2023-09-19T08:36:52;97349.59;;;21.66;69.92
70921;BME280;58572;48.110;19.838;2023-09-19T08:39:22;97347.31;;;21.95;69.15
70921;BME280;58572;48.110;19.838;2023-09-19T08:41:49;97352.91;;;21.76;69.69
70921;BME280;58572;48.110;19.838;2023-09-19T08:44:23;97350.78;;;22.11;68.40
70921;BME280;58572;48.110;19.838;2023-09-19T08:46:50;97343.22;;;22.08;68.16
70921;BME280;58572;48.110;19.838;2023-09-19T08:49:27;97356.50;;;20.76;73.76
70921;BME280;58572;48.110;19.838;2023-09-19T08:52:04;97343.31;;;21.70;70.03
70921;BME280;58572;48.110;19.838;2023-09-19T08:54:35;97345.72;;;22.17;68.29
70921;BME280;58572;48.110;19.838;2023-09-19T08:57:06;97352.03;;;21.26;71.43
70921;BME280;58572;48.110;19.838;2023-09-19T08:59:38;97352.00;;;21.68;70.15
70921;BME280;58572;48.110;19.838;2023-09-19T09:02:11;97357.38;;;22.03;68.73
70921;BME280;58572;48.110;19.838;2023-09-19T09:04:41;97330.47;;;21.81;69.21
70921;BME280;58572;48.110;19.838;2023-09-19T09:07:12;97356.22;;;22.30;67.61
70921;BME280;58572;48.110;19.838;2023-09-19T09:09:39;97355.88;;;22.09;68.54
70921;BME280;58572;48.110;19.838;2023-09-19T09:12:09;97346.09;;;21.70;69.44
70921;BME280;58572;48.110;19.838;2023-09-19T09:14:38;97351.69;;;21.96;68.94
70921;BME280;58572;48.110;19.838;2023-09-19T09:17:05;97363.78;;;22.34;67.62
70921;BME280;58572;48.110;19.838;2023-09-19T09:19:33;97367.56;;;21.15;72.39
70921;BME280;58572;48.110;19.838;2023-09-19T09:22:07;97358.44;;;22.21;68.27
70921;BME280;58572;48.110;19.838;2023-09-19T09:24:37;97375.88;;;21.15;74.77
70921;BME280;58572;48.110;19.838;2023-09-19T09:27:06;97321.25;;;21.50;70.07
70921;BME280;58572;48.110;19.838;2023-09-19T09:29:42;97375.38;;;22.16;68.50
70921;BME280;58572;48.110;19.838;2023-09-19T09:32:22;97377.63;;;22.34;67.95
70921;BME280;58572;48.110;19.838;2023-09-19T09:34:51;97380.28;;;22.26;68.06
70921;BME280;58572;48.110;19.838;2023-09-19T09:37:20;97382.78;;;22.09;68.76
70921;BME280;58572;48.110;19.838;2023-09-19T09:39:54;97381.28;;;22.15;68.58
70921;BME280;58572;48.110;19.838;2023-09-19T09:42:31;97381.41;;;22.22;68.88
70921;BME280;58572;48.110;19.838;2023-09-19T09:45:20;97378.50;;;21.08;72.98
70921;BME280;58572;48.110;19.838;2023-09-19T09:47:54;97389.28;;;21.32;73.48
70921;BME280;58572;48.110;19.838;2023-09-19T09:50:29;97379.25;;;21.89;69.97
70921;BME280;58572;48.110;19.838;2023-09-19T09:53:20;97392.84;;;21.97;69.91
70921;BME280;58572;48.110;19.838;2023-09-19T09:56:10;97407.28;;;21.07;76.14
70921;BME280;58572;48.110;19.838;2023-09-19T09:58:50;97404.47;;;21.22;73.98
70921;BME280;58572;48.110;19.838;2023-09-19T10:01:21;97405.53;;;21.56;75.89
70921;BME280;58572;48.110;19.838;2023-09-19T10:03:57;97405.41;;;21.49;75.46
70921;BME280;58572;48.110;19.838;2023-09-19T10:06:25;97406.00;;;22.27;70.23
70921;BME280;58572;48.110;19.838;2023-09-19T10:09:12;97415.25;;;22.12;70.58
70921;BME280;58572;48.110;19.838;2023-09-19T10:11:45;97417.34;;;21.34;72.83
70921;BME280;58572;48.110;19.838;2023-09-19T10:14:14;97416.03;;;21.47;74.93
70921;BME280;58572;48.110;19.838;2023-09-19T10:16:46;97409.53;;;21.82;71.84
70921;BME280;58572;48.110;19.838;2023-09-19T10:19:16;97409.38;;;22.40;70.28
70921;BME280;58572;48.110;19.838;2023-09-19T10:21:50;97410.25;;;21.98;71.17
70921;BME280;58572;48.110;19.838;2023-09-19T10:24:19;97419.09;;;21.42;75.38
70921;BME280;58572;48.110;19.838;2023-09-19T10:26:50;97422.06;;;21.95;74.58
70921;BME280;58572;48.110;19.838;2023-09-19T10:29:18;97408.31;;;21.79;73.55
70921;BME280;58572;48.110;19.838;2023-09-19T10:31:48;97409.19;;;22.29;73.30
70921;BME280;58572;48.110;19.838;2023-09-19T10:34:17;97385.00;;;21.57;74.99
70921;BME280;58572;48.110;19.838;2023-09-19T10:36:45;97414.53;;;22.68;70.26
70921;BME280;58572;48.110;19.838;2023-09-19T10:39:15;97414.66;;;22.48;71.40
70921;BME280;58572;48.110;19.838;2023-09-19T10:41:51;97417.63;;;22.62;69.27
70921;BME280;58572;48.110;19.838;2023-09-19T10:44:23;97416.75;;;22.32;70.85
70921;BME280;58572;48.110;19.838;2023-09-19T10:46:52;97407.13;;;22.49;70.09
70921;BME280;58572;48.110;19.838;2023-09-19T10:49:20;97391.78;;;22.55;69.35
70921;BME280;58572;48.110;19.838;2023-09-19T10:51:49;97383.25;;;22.41;71.40
70921;BME280;58572;48.110;19.838;2023-09-19T10:54:22;97379.19;;;22.61;71.99
70921;BME280;58572;48.110;19.838;2023-09-19T10:56:54;97377.03;;;21.98;72.04
70921;BME280;58572;48.110;19.838;2023-09-19T10:59:25;97372.28;;;21.98;72.45
70921;BME280;58572;48.110;19.838;2023-09-19T11:02:16;97365.41;;;22.12;71.95
70921;BME280;58572;48.110;19.838;2023-09-19T11:04:44;97366.09;;;22.05;71.63
70921;BME280;58572;48.110;19.838;2023-09-19T11:07:14;97378.63;;;21.99;71.96
70921;BME280;58572;48.110;19.838;2023-09-19T11:09:45;97384.22;;;22.25;71.21
70921;BME280;58572;48.110;19.838;2023-09-19T11:18:56;97395.09;;;22.38;70.65
70921;BME280;58572;48.110;19.838;2023-09-19T11:21:52;97400.41;;;22.23;70.51
70921;BME280;58572;48.110;19.838;2023-09-19T11:24:29;97413.31;;;22.39;70.12
70921;BME280;58572;48.110;19.838;2023-09-19T11:27:15;97408.22;;;21.95;73.94
70921;BME280;58572;48.110;19.838;2023-09-19T11:29:44;97412.47;;;21.47;75.20
70921;BME280;58572;48.110;19.838;2023-09-19T11:32:12;97409.34;;;21.71;73.25
70921;BME280;58572;48.110;19.838;2023-09-19T11:34:47;97406.00;;;21.39;77.30
70921;BME280;58572;48.110;19.838;2023-09-19T11:40:46;97405.47;;;22.18;73.05
70921;BME280;58572;48.110;19.838;2023-09-19T11:43:34;97398.16;;;22.85;69.24
70921;BME280;58572;48.110;19.838;2023-09-19T11:46:08;97412.28;;;22.77;72.61
70921;BME280;58572;48.110;19.838;2023-09-19T11:48:39;97415.75;;;22.44;72.25
70921;BME280;58572;48.110;19.838;2023-09-19T11:51:14;97414.91;;;22.40;72.66
70921;BME280;58572;48.110;19.838;2023-09-19T11:53:45;97419.22;;;22.63;72.70
70921;BME280;58572;48.110;19.838;2023-09-19T11:56:15;97422.72;;;22.34;73.51
70921;BME280;58572;48.110;19.838;2023-09-19T11:58:45;97426.84;;;22.44;74.81
70921;BME280;58572;48.110;19.838;2023-09-19T12:01:14;97429.25;;;21.19;80.02
70921;BME280;58572;48.110;19.838;2023-09-19T12:03:47;97438.25;;;21.74;76.57
70921;BME280;58572;48.110;19.838;2023-09-19T12:06:16;97434.56;;;22.08;74.91
70921;BME280;58572;48.110;19.838;2023-09-19T12:08:44;97440.56;;;22.37;74.01
70921;BME280;58572;48.110;19.838;2023-09-19T12:11:14;97444.91;;;22.87;71.06
70921;BME280;58572;48.110;19.838;2023-09-19T12:13:48;97452.94;;;21.97;74.99
70921;BME280;58572;48.110;19.838;2023-09-19T12:16:17;97459.66;;;22.68;71.69
70921;BME280;58572;48.110;19.838;2023-09-19T12:18:48;97461.50;;;22.83;72.13
70921;BME280;58572;48.110;19.838;2023-09-19T12:21:28;97459.34;;;22.47;71.25
70921;BME280;58572;48.110;19.838;2023-09-19T12:23:59;97465.94;;;22.16;73.13
70921;BME280;58572;48.110;19.838;2023-09-19T12:26:26;97469.50;;;22.88;70.34
70921;BME280;58572;48.110;19.838;2023-09-19T12:28:56;97464.84;;;22.92;69.82
70921;BME280;58572;48.110;19.838;2023-09-19T12:31:24;97463.59;;;22.67;70.91
70921;BME280;58572;48.110;19.838;2023-09-19T12:33:55;97464.53;;;21.83;73.43
70921;BME280;58572;48.110;19.838;2023-09-19T12:36:24;97476.28;;;22.68;71.78
70921;BME280;58572;48.110;19.838;2023-09-19T12:38:56;97471.06;;;21.52;77.03
70921;BME280;58572;48.110;19.838;2023-09-19T12:41:24;97474.06;;;22.28;72.59
70921;BME280;58572;48.110;19.838;2023-09-19T12:43:53;97494.00;;;22.37;72.93
70921;BME280;58572;48.110;19.838;2023-09-19T12:46:22;97480.34;;;22.48;71.11
70921;BME280;58572;48.110;19.838;2023-09-19T12:49:15;97485.75;;;22.41;72.25
70921;BME280;58572;48.110;19.838;2023-09-19T12:51:44;97491.91;;;22.08;72.23
70921;BME280;58572;48.110;19.838;2023-09-19T12:54:12;97489.69;;;21.36;75.89
70921;BME280;58572;48.110;19.838;2023-09-19T12:56:41;97492.47;;;22.40;71.76
70921;BME280;58572;48.110;19.838;2023-09-19T12:59:11;97498.63;;;20.94;78.13
70921;BME280;58572;48.110;19.838;2023-09-19T13:01:41;97479.50;;;21.59;74.24
70921;BME280;58572;48.110;19.838;2023-09-19T13:04:13;97502.28;;;20.98;76.91
70921;BME280;58572;48.110;19.838;2023-09-19T13:06:44;97502.19;;;22.07;72.64
70921;BME280;58572;48.110;19.838;2023-09-19T13:09:13;97512.59;;;21.94;72.58
70921;BME280;58572;48.110;19.838;2023-09-19T13:11:40;97517.63;;;21.70;75.26
70921;BME280;58572;48.110;19.838;2023-09-19T13:14:17;97523.03;;;21.08;77.44
70921;BME280;58572;48.110;19.838;2023-09-19T13:17:00;97512.25;;;21.77;75.07
70921;BME280;58572;48.110;19.838;2023-09-19T13:19:36;97506.75;;;22.19;72.59
70921;BME280;58572;48.110;19.838;2023-09-19T13:22:05;97514.75;;;22.47;70.97
70921;BME280;58572;48.110;19.838;2023-09-19T13:24:34;97519.09;;;22.71;69.99